KMEI/MEI METAR and TAF weather

Enter ICAO airport designator
Station Type Date Time Source
KMEI METAR 2019/10/23 07:58 UTC NOAA

KMEI 230758Z AUTO 00000KT 10SM CLR 07/04 A3017 RMK AO2 SLP214 T00670044


Station Type Date Time Source
KMEI Decoded METAR 2019/10/23 07:58 UTC NOAA

MERIDIAN KEY FIELD, MS, United States (KMEI) 32-20N 088-45W 89M
Oct 23, 2019 - 03:58 AM EDT / 2019.10.23 0758 UTC
Wind: Calm:0
Visibility: 10 mile(s):0
Sky conditions: clear
Temperature: 44.1 F (6.7 C)
Dew Point: 39.9 F (4.4 C)
Relative Humidity: 85%
Pressure (altimeter): 30.17 in. Hg (1021 hPa)
ob: KMEI 230758Z AUTO 00000KT 10SM CLR 07/04 A3017 RMK AO2 SLP214 T00670044
cycle: 8

Station Type Date Time Source
KMEI TAF 2019/10/23 06:22 UTC NOAA

TAF KMEI 230520Z 2306/2406 18003KT P6SM SKC

Example: see airport list